GVAC

Amílcar Cabral International Airport

Espargos, Cape Verde
METAR GVAC 211500Z 05014KT 9999 BKN014 25/14 Q1015 NOSIG
Observed Flight Rules
Apr-21 @ 15:00 UTC (38 minutes ago) Marginal Visual Flight Rules
Wind Visibility Clouds
50° at 14 knots 10,000+ meters
  • Broken at 1,400' AGL
Temperatures Readings
Current 25°C / 77°F
Dewpoint 14°C / 57°F
Humidity 51%
Altimeter 29.97" Hg
Pressure 1015 hPa
Elevation 55
METAR GVAC 211500Z 05014KT 9999 BKN014 25/14 Q1015 NOSIG
Observed Flight Rules
Apr-21 @ 15:00 UTC
(38 minutes ago)
MVFR
Wind Visibility
50° at 14 knots 10,000+ meters
Clouds
  • Broken at 1,400' AGL
Temperature Dewpoint
25°C / 77°F 14°C / 57°F
Humidity Altimeter Pressure
51% 29.97" Hg 1015 hPa